Flight Sim Network - SOCA Airport Info

    SOCA (Cayenne-Rochambeau Airport)  Login to use Map Selector
   

  RUNWAY INFORMATION    |    Airport Elevation : 26ft    |    LAT : 4.81980991364  /  LON : -52.3604011536
Runway Number 08 / 26 Runway Width 148' Runway Length 10486'
Lighted Runway Yes Runway StatusOpen Runway Surface Asphalt
  CLOSE ALTERNATE AIRPORTS
ICAODistanceAirport NameLongest RWRW SurfaceMAP
SOOG65NMSt Georges De L\'oyapock3937FTConcrete
SBOI67NMOiapoque Airport3954FTAsphalt
SOOS88NMSaul3937FTGravel
SOOM108NMSt-Laurent-Du-Maroni3281FTDirt
  AIRPORT WEATHER
80°F | 27°C
Temperature
88%
Humidity
29" | 0mb
Pressure
6sm
Visibility
VFR
Flight Rules
FEW @ 2300ft
Initial Clouds
FAIR
Conditions
Wind Info
4/25/24 10:30Z
Updated

SOCA 251030Z AUTO 08003KT 9999 FEW023 SCT052 27/25 Q1012 TEMPO 4000 SHRA SCT010 BKN015TCU
  AIRPORT FREQUENCIES
NameFrequency
ATIS132.200
GROUND118.100
TOWER118.100
APPROACH119.900
DEPARTURE119.900
CA (RWY 8)110.300

Powered by Virtual Airlines Manager